createdAt,value
2018-03-30T00:00:07.514Z,100011.50
2018-03-30T00:02:35.806Z,100010.21
2018-03-30T00:05:09.412Z,100007.80
2018-03-30T00:07:37.710Z,100010.55
2018-03-30T00:10:06.893Z,99980.88
2018-03-30T00:12:35.441Z,100008.53
2018-03-30T00:15:06.562Z,100004.72
2018-03-30T00:17:34.856Z,100002.09
2018-03-30T00:20:06.620Z,99997.91
2018-03-30T00:22:34.921Z,99994.22
2018-03-30T00:25:06.656Z,99996.47
2018-03-30T00:27:34.963Z,99996.89
2018-03-30T00:30:06.664Z,99990.08
2018-03-30T00:32:34.936Z,99992.84
2018-03-30T00:35:06.864Z,99992.66
2018-03-30T00:37:35.296Z,99991.65
2018-03-30T00:40:07.413Z,99988.24
2018-03-30T00:42:35.677Z,99985.61
2018-03-30T00:45:07.237Z,99980.78
2018-03-30T00:47:35.970Z,99973.33
2018-03-30T00:50:05.518Z,99965.27
2018-03-30T00:52:33.773Z,99971.66
2018-03-30T00:55:05.733Z,99974.00
2018-03-30T00:57:33.997Z,99972.55
2018-03-30T01:00:05.449Z,99972.90
2018-03-30T01:02:34.034Z,99963.04
2018-03-30T01:05:05.556Z,99964.11
2018-03-30T01:07:33.929Z,99963.34
2018-03-30T01:10:05.388Z,99963.25
2018-03-30T01:12:33.679Z,99966.73
2018-03-30T01:15:05.151Z,99959.12
2018-03-30T01:17:33.443Z,99956.40
2018-03-30T01:20:05.525Z,99961.35
2018-03-30T01:22:33.858Z,99962.39
2018-03-30T01:25:05.335Z,99953.63
2018-03-30T01:27:33.611Z,99954.05
2018-03-30T01:30:05.019Z,99945.49
2018-03-30T01:32:33.704Z,99947.48
2018-03-30T01:35:05.014Z,99946.05
2018-03-30T01:37:33.287Z,99940.06
2018-03-30T01:40:08.247Z,99932.50
2018-03-30T01:42:37.752Z,99933.89
2018-03-30T01:45:06.639Z,99931.84
2018-03-30T01:47:34.985Z,99928.05
2018-03-30T01:50:06.470Z,99921.93
2018-03-30T01:52:34.761Z,99918.41
2018-03-30T01:55:05.784Z,99919.75
2018-03-30T01:57:34.346Z,99914.80
2018-03-30T02:00:06.441Z,99916.97
2018-03-30T02:02:34.764Z,99915.49
2018-03-30T02:05:06.760Z,99913.42
2018-03-30T02:07:35.025Z,99903.89
2018-03-30T02:10:06.331Z,99906.42
2018-03-30T02:12:34.722Z,99906.06
2018-03-30T02:15:05.615Z,99902.86
2018-03-30T02:17:33.965Z,99912.65
2018-03-30T02:20:05.424Z,99897.73
2018-03-30T02:22:33.832Z,99893.41
2018-03-30T02:25:05.610Z,99891.78
2018-03-30T02:27:34.537Z,99891.70
2018-03-30T02:30:06.221Z,99890.62
2018-03-30T02:32:34.494Z,99898.36
2018-03-30T02:35:05.822Z,99891.16
2018-03-30T02:37:34.098Z,99885.41
2018-03-30T02:40:05.824Z,99880.91
2018-03-30T02:42:34.266Z,99886.13
2018-03-30T02:45:05.917Z,99882.12
2018-03-30T02:47:34.196Z,99881.00
2018-03-30T02:50:06.125Z,99870.44
2018-03-30T02:52:34.421Z,99868.89
2018-03-30T02:55:05.809Z,99869.28
2018-03-30T02:57:34.131Z,99862.63
2018-03-30T03:00:05.692Z,99876.86
2018-03-30T03:02:34.504Z,99872.56
2018-03-30T03:05:05.944Z,99868.20
2018-03-30T03:07:34.205Z,99874.23
2018-03-30T03:10:07.410Z,99873.14
2018-03-30T03:12:36.147Z,99869.78
2018-03-30T03:15:06.165Z,99862.05
2018-03-30T03:17:34.432Z,99872.57
2018-03-30T03:20:05.894Z,99863.02
2018-03-30T03:22:37.766Z,99862.20
2018-03-30T03:25:06.057Z,99856.91
2018-03-30T03:27:34.329Z,99850.07
2018-03-30T03:30:05.926Z,99849.48
2018-03-30T03:32:34.230Z,99845.62
2018-03-30T03:35:05.656Z,99845.27
2018-03-30T03:37:33.912Z,99841.53
2018-03-30T03:40:06.231Z,99839.91
2018-03-30T03:42:34.495Z,99840.87
2018-03-30T03:45:05.749Z,99830.16
2018-03-30T03:47:34.432Z,99829.59
2018-03-30T03:50:06.332Z,99829.39
2018-03-30T03:52:34.726Z,99831.48
2018-03-30T03:55:06.801Z,99827.42
2018-03-30T03:57:35.089Z,99822.35
2018-03-30T04:00:07.119Z,99820.53
2018-03-30T04:02:35.418Z,99821.70
2018-03-30T04:05:07.529Z,99821.85
2018-03-30T04:07:35.801Z,99823.59
2018-03-30T04:10:07.026Z,99823.47
2018-03-30T04:12:35.313Z,99823.20
2018-03-30T04:15:06.500Z,99832.02
2018-03-30T04:17:35.118Z,99834.72
2018-03-30T04:20:07.652Z,99824.59
2018-03-30T04:22:35.951Z,99828.22
2018-03-30T04:25:05.937Z,99822.66
2018-03-30T04:27:34.222Z,99821.88
2018-03-30T04:30:09.218Z,99827.30
2018-03-30T04:32:37.633Z,99827.06
2018-03-30T04:35:05.914Z,99819.06
2018-03-30T04:37:34.237Z,99826.88
2018-03-30T04:40:09.357Z,99826.11
2018-03-30T04:42:37.636Z,99827.84
2018-03-30T04:45:06.060Z,99818.59
2018-03-30T04:47:34.826Z,99820.61
2018-03-30T04:50:06.546Z,99816.70
2018-03-30T04:52:34.832Z,99813.77
2018-03-30T04:55:06.048Z,99811.77
2018-03-30T04:57:34.801Z,99805.70
2018-03-30T05:00:06.800Z,99813.90
2018-03-30T05:02:35.080Z,99795.77
2018-03-30T05:05:05.930Z,99798.36
2018-03-30T05:07:34.207Z,99794.45
2018-03-30T05:10:09.238Z,99797.66
2018-03-30T05:12:37.504Z,99790.40
2018-03-30T05:15:05.776Z,99801.14
2018-03-30T05:17:34.213Z,99807.62
2018-03-30T05:20:09.238Z,99818.89
2018-03-30T05:22:37.502Z,99817.77
2018-03-30T05:25:05.784Z,99819.63
2018-03-30T05:27:34.058Z,99815.23
2018-03-30T05:30:05.492Z,99808.53
2018-03-30T05:32:33.758Z,99809.03
2018-03-30T05:35:05.248Z,99805.45
2018-03-30T05:37:33.542Z,99805.78
2018-03-30T05:40:08.290Z,99805.26
2018-03-30T05:42:36.566Z,99805.61
2018-03-30T05:45:06.100Z,99803.30
2018-03-30T05:47:34.370Z,99801.73
2018-03-30T05:50:05.794Z,99796.47
2018-03-30T05:52:34.096Z,99794.66
2018-03-30T05:55:05.834Z,99795.73
2018-03-30T05:57:34.549Z,99800.87
2018-03-30T06:00:08.494Z,99799.38
2018-03-30T06:02:37.042Z,99795.05
2018-03-30T06:05:06.129Z,99795.81
2018-03-30T06:07:34.389Z,99793.26
2018-03-30T06:10:07.441Z,99800.41
2018-03-30T06:12:35.728Z,99802.46
2018-03-30T06:15:05.842Z,99795.57
2018-03-30T06:17:34.142Z,99799.02
2018-03-30T06:20:06.016Z,99803.80
2018-03-30T06:22:34.327Z,99798.34
2018-03-30T06:25:09.327Z,99790.27
2018-03-30T06:27:37.859Z,99795.33
2018-03-30T06:30:06.140Z,99792.95
2018-03-30T06:32:34.428Z,99791.03
2018-03-30T06:35:08.444Z,99799.08
2018-03-30T06:37:36.732Z,99785.84
2018-03-30T06:40:06.233Z,99786.06
2018-03-30T06:42:34.520Z,99791.52
2018-03-30T06:45:06.599Z,99794.67
2018-03-30T06:47:34.869Z,99784.62
2018-03-30T06:50:07.036Z,99785.01
2018-03-30T06:52:35.300Z,99785.97
2018-03-30T06:55:07.064Z,99780.82
2018-03-30T06:57:35.345Z,99773.35
2018-03-30T07:00:07.065Z,99789.88
2018-03-30T07:02:39.580Z,99777.80
2018-03-30T07:05:07.851Z,99791.05
2018-03-30T07:07:36.334Z,99778.73
2018-03-30T07:10:06.447Z,99778.24
2018-03-30T07:12:34.769Z,99764.37
2018-03-30T07:15:06.691Z,99768.06
2018-03-30T07:17:34.972Z,99769.14
2018-03-30T07:20:07.025Z,99769.38
2018-03-30T07:22:35.361Z,99772.58
2018-03-30T07:25:06.635Z,99768.62
2018-03-30T07:27:34.885Z,99764.48
2018-03-30T07:30:06.620Z,99756.92
2018-03-30T07:32:35.073Z,99751.56
2018-03-30T07:35:06.449Z,99753.66
2018-03-30T07:37:34.813Z,99743.11
2018-03-30T07:40:07.585Z,99742.91
2018-03-30T07:42:35.849Z,99742.64
2018-03-30T07:45:07.508Z,99737.04
2018-03-30T07:47:36.757Z,99736.68
2018-03-30T07:50:06.882Z,99712.76
2018-03-30T07:52:35.444Z,99712.34
2018-03-30T07:55:07.926Z,99715.83
2018-03-30T07:57:36.261Z,99712.89
2018-03-30T08:00:06.088Z,99718.67
2018-03-30T08:02:34.369Z,99713.48
2018-03-30T08:05:09.732Z,99701.58
2018-03-30T08:07:38.012Z,99706.73
2018-03-30T08:10:06.278Z,99692.73
2018-03-30T08:12:34.554Z,99685.91
2018-03-30T08:15:08.597Z,99685.47
2018-03-30T08:17:37.118Z,99680.91
2018-03-30T08:20:06.412Z,99676.69
2018-03-30T08:22:35.125Z,99679.02
2018-03-30T08:25:06.849Z,99667.39
2018-03-30T08:27:35.249Z,99665.11
2018-03-30T08:30:07.439Z,99673.05
2018-03-30T08:32:35.714Z,99666.15
2018-03-30T08:35:08.024Z,99657.05
2018-03-30T08:37:37.124Z,99656.90
2018-03-30T08:40:06.356Z,99652.44
2018-03-30T08:42:35.275Z,99646.61
2018-03-30T08:45:07.503Z,99650.99
2018-03-30T08:47:36.148Z,99641.48
2018-03-30T08:50:07.735Z,99652.53
2018-03-30T08:52:36.028Z,99642.59
2018-03-30T08:55:05.994Z,99641.80
2018-03-30T08:57:34.589Z,99637.75
2018-03-30T09:00:06.037Z,99639.63
2018-03-30T09:02:34.328Z,99624.44
2018-03-30T09:05:06.425Z,99626.19
2018-03-30T09:07:35.039Z,99623.73
2018-03-30T09:10:07.060Z,99632.06
2018-03-30T09:12:35.372Z,99624.73
2018-03-30T09:15:06.840Z,99613.47
2018-03-30T09:17:35.123Z,99616.94
2018-03-30T09:20:06.825Z,99624.27
2018-03-30T09:22:35.353Z,99616.70
2018-03-30T09:25:07.841Z,99613.69
2018-03-30T09:27:36.549Z,99609.38
2018-03-30T09:30:06.631Z,99600.61
2018-03-30T09:32:34.939Z,99605.97
2018-03-30T09:35:06.299Z,99595.17
2018-03-30T09:37:34.590Z,99597.17
2018-03-30T09:40:06.712Z,99589.35
2018-03-30T09:42:34.982Z,99582.06
2018-03-30T09:45:07.392Z,99565.87
2018-03-30T09:47:35.665Z,99570.80
2018-03-30T09:50:07.386Z,99569.81
2018-03-30T09:52:35.654Z,99553.60
2018-03-30T09:55:07.766Z,99572.06
2018-03-30T09:57:36.857Z,99571.88
2018-03-30T10:00:06.455Z,99559.34
2018-03-30T10:02:34.739Z,99486.05
2018-03-30T10:05:06.343Z,99552.20
2018-03-30T10:07:34.613Z,99544.09
2018-03-30T10:10:06.054Z,99544.26
2018-03-30T10:12:35.286Z,99543.17
2018-03-30T10:15:06.305Z,99541.30
2018-03-30T10:17:34.596Z,99525.89
2018-03-30T10:20:07.610Z,99523.61
2018-03-30T10:22:35.925Z,99510.93
2018-03-30T10:25:07.316Z,99495.97
2018-03-30T10:27:35.772Z,99498.09
2018-03-30T10:30:07.473Z,99480.94
2018-03-30T10:32:35.770Z,99471.99
2018-03-30T10:35:08.064Z,99463.67
2018-03-30T10:37:36.360Z,99457.38
2018-03-30T10:40:06.263Z,99453.59
2018-03-30T10:42:34.550Z,99445.90
2018-03-30T10:45:09.702Z,99431.45
2018-03-30T10:47:38.012Z,99421.72
2018-03-30T10:50:06.284Z,99418.22
2018-03-30T10:52:34.585Z,99409.54
2018-03-30T10:55:06.132Z,99398.45
2018-03-30T10:57:34.793Z,99396.05
2018-03-30T11:00:08.841Z,99384.44
2018-03-30T11:02:37.093Z,99371.59
2018-03-30T11:05:06.596Z,99367.01
2018-03-30T11:07:35.145Z,99359.64
2018-03-30T11:10:07.144Z,99355.05
2018-03-30T11:12:35.534Z,99342.59
2018-03-30T11:15:09.397Z,99336.53
2018-03-30T11:17:37.673Z,99353.63
2018-03-30T11:20:06.676Z,99371.31
2018-03-30T11:22:34.908Z,99371.78
2018-03-30T11:25:06.706Z,99382.63
2018-03-30T11:27:34.978Z,99377.06
2018-03-30T11:30:06.393Z,99354.41
2018-03-30T11:32:34.804Z,99346.72
2018-03-30T11:35:06.932Z,99346.59
2018-03-30T11:37:35.206Z,99339.31
2018-03-30T11:40:06.635Z,99335.70
2018-03-30T11:42:34.915Z,99337.98
2018-03-30T11:45:06.594Z,99348.26
2018-03-30T11:47:34.870Z,99349.30
2018-03-30T11:50:07.013Z,99363.02
2018-03-30T11:52:35.318Z,99348.17
2018-03-30T11:55:07.481Z,99354.34
2018-03-30T11:57:35.749Z,99350.92
2018-03-30T12:00:07.694Z,99351.09
2018-03-30T12:02:36.144Z,99351.28
2018-03-30T12:05:08.374Z,99334.27
2018-03-30T12:07:36.652Z,99336.64
2018-03-30T12:10:06.569Z,99328.84
2018-03-30T12:12:34.880Z,99320.48
2018-03-30T12:15:06.997Z,99328.86
2018-03-30T12:17:35.298Z,99333.14
2018-03-30T12:20:07.305Z,99327.36
2018-03-30T12:22:35.590Z,99320.22
2018-03-30T12:25:07.734Z,99322.20
2018-03-30T12:27:36.027Z,99319.16
2018-03-30T12:30:08.003Z,99322.50
2018-03-30T12:32:36.284Z,99319.83
2018-03-30T12:35:06.234Z,99322.34
2018-03-30T12:37:34.486Z,99325.23
2018-03-30T12:40:05.856Z,99329.25
2018-03-30T12:42:34.280Z,99333.56
2018-03-30T12:45:09.258Z,99326.88
2018-03-30T12:47:37.536Z,99318.91
2018-03-30T12:50:08.039Z,99305.19
2018-03-30T12:52:36.333Z,99304.09
2018-03-30T12:55:06.342Z,99301.84
2018-03-30T12:57:34.606Z,99292.64
2018-03-30T13:00:07.434Z,99289.05
2018-03-30T13:02:35.733Z,99293.63
2018-03-30T13:05:07.729Z,99284.86
2018-03-30T13:07:36.480Z,99281.02
2018-03-30T13:10:08.201Z,99274.97
2018-03-30T13:12:36.465Z,99277.72
2018-03-30T13:15:07.041Z,99274.95
2018-03-30T13:17:35.369Z,99263.44
2018-03-30T13:20:07.125Z,99258.05
2018-03-30T13:22:35.376Z,99262.31
2018-03-30T13:25:07.540Z,99251.23
2018-03-30T13:27:35.817Z,99246.47
2018-03-30T13:30:07.064Z,99234.19
2018-03-30T13:32:35.340Z,99241.17
2018-03-30T13:35:07.634Z,99238.83
2018-03-30T13:37:35.909Z,99231.92
2018-03-30T13:40:07.956Z,99226.88
2018-03-30T13:42:36.241Z,99222.33
2018-03-30T13:45:08.139Z,99227.05
2018-03-30T13:47:36.418Z,99209.30
2018-03-30T13:50:13.418Z,99211.80
2018-03-30T13:52:49.492Z,99206.41
2018-03-30T13:55:18.041Z,99204.80
2018-03-30T13:57:48.029Z,99204.71
2018-03-30T14:00:25.680Z,99198.30
2018-03-30T14:02:57.608Z,99207.57
2018-03-30T14:05:40.609Z,99203.63
2018-03-30T14:11:10.351Z,99183.98
2018-03-30T14:13:38.654Z,99182.48
2018-03-30T14:16:13.406Z,99185.13
2018-03-30T14:18:53.489Z,99175.94
2018-03-30T14:21:23.152Z,99164.95
2018-03-30T14:23:54.240Z,99171.42
2018-03-30T14:26:26.566Z,99163.01
2018-03-30T14:35:26.445Z,99152.31
2018-03-30T14:38:01.275Z,99153.11
2018-03-30T14:40:31.428Z,99145.80
2018-03-30T14:43:03.344Z,99149.09
2018-03-30T14:45:37.833Z,99141.78
2018-03-30T14:48:07.214Z,99140.11
2018-03-30T14:50:36.317Z,99139.17
2018-03-30T14:53:06.073Z,99138.66
2018-03-30T14:55:41.982Z,99136.14
2018-03-30T14:58:25.933Z,99127.38
2018-03-30T15:00:54.845Z,99128.70
2018-03-30T15:03:24.945Z,99128.27
2018-03-30T15:05:56.213Z,99128.19
2018-03-30T15:08:31.041Z,99124.25
2018-03-30T15:14:01.416Z,99122.72
2018-03-30T15:16:34.358Z,99122.09
2018-03-30T15:19:03.321Z,99121.03
2018-03-30T15:24:28.320Z,99112.02
2018-03-30T15:27:02.105Z,99119.04
2018-03-30T15:29:37.450Z,99117.99
2018-03-30T15:35:04.074Z,99105.22
2018-03-30T15:37:32.876Z,99100.73
2018-03-30T15:40:08.595Z,99097.55
2018-03-30T15:42:42.413Z,99088.39
2018-03-30T15:45:13.993Z,99084.45
2018-03-30T15:47:42.379Z,99084.77
2018-03-30T15:50:10.656Z,99077.94
2018-03-30T15:52:38.921Z,99084.22
2018-03-30T15:55:07.223Z,99083.25
2018-03-30T15:57:35.514Z,99080.68
2018-03-30T16:00:08.798Z,99089.92
2018-03-30T16:02:38.584Z,99089.01
2018-03-30T16:05:06.941Z,99080.45
2018-03-30T16:07:35.330Z,99088.45
2018-03-30T16:10:11.360Z,99092.50
2018-03-30T16:12:40.489Z,99101.84
2018-03-30T16:15:08.778Z,99098.22
2018-03-30T16:17:37.075Z,99098.22
2018-03-30T16:20:06.542Z,99111.19
2018-03-30T16:22:34.307Z,99111.89
2018-03-30T16:25:08.426Z,99120.27
2018-03-30T16:27:36.158Z,99121.92
2018-03-30T16:30:07.739Z,99117.52
2018-03-30T16:32:35.525Z,99113.89
2018-03-30T16:35:06.975Z,99116.22
2018-03-30T16:37:34.723Z,99127.86
2018-03-30T16:40:06.412Z,99137.45
2018-03-30T16:42:34.380Z,99138.69
2018-03-30T16:45:08.554Z,99132.19
2018-03-30T16:47:36.301Z,99139.47
2018-03-30T16:50:07.287Z,99144.70
2018-03-30T16:52:35.150Z,99137.27
2018-03-30T16:55:05.861Z,99128.09
2018-03-30T16:57:33.873Z,99140.05
2018-03-30T17:00:04.728Z,99129.16
2018-03-30T17:02:32.453Z,99124.09
2018-03-30T17:05:00.221Z,99124.38
2018-03-30T17:07:30.998Z,99132.36
2018-03-30T17:09:59.017Z,99134.92
2018-03-30T17:12:27.599Z,99135.45
2018-03-30T17:14:55.347Z,99137.28
2018-03-30T17:17:23.110Z,99136.99
2018-03-30T17:22:25.410Z,99148.05
2018-03-30T17:24:53.173Z,99156.09
2018-03-30T17:27:20.923Z,99139.40
2018-03-30T17:29:48.924Z,99145.72
2018-03-30T17:32:16.706Z,99150.72
2018-03-30T17:34:44.453Z,99148.83
2018-03-30T17:37:12.198Z,99150.70
2018-03-30T17:39:39.976Z,99140.30
2018-03-30T17:42:07.737Z,99146.90
2018-03-30T17:44:35.481Z,99153.95
2018-03-30T17:47:03.255Z,99164.84
2018-03-30T17:49:31.019Z,99158.08
2018-03-30T17:51:58.773Z,99157.94
2018-03-30T17:54:26.932Z,99171.07
2018-03-30T17:56:54.666Z,99163.31
2018-03-30T17:59:22.419Z,99183.87
2018-03-30T18:01:50.192Z,99172.41
2018-03-30T18:04:17.937Z,99179.13
2018-03-30T18:06:45.755Z,99174.84
2018-03-30T18:09:13.840Z,99176.73
2018-03-30T18:11:41.700Z,99173.66
2018-03-30T18:14:09.726Z,99172.86
2018-03-30T18:16:37.634Z,99165.89
2018-03-30T18:19:05.497Z,99167.42
2018-03-30T18:21:33.196Z,99164.10
2018-03-30T18:24:00.943Z,99174.59
2018-03-30T18:26:28.677Z,99170.98
2018-03-30T18:28:56.473Z,99168.66
2018-03-30T18:31:24.282Z,99174.38
2018-03-30T18:33:52.042Z,99178.73
2018-03-30T18:36:19.827Z,99185.35
2018-03-30T18:38:51.768Z,99185.50
2018-03-30T18:41:19.533Z,99187.04
2018-03-30T18:43:47.349Z,99195.67
2018-03-30T18:46:15.096Z,99200.49
2018-03-30T18:48:43.493Z,99198.78
2018-03-30T18:51:11.301Z,99200.63
2018-03-30T18:53:39.058Z,99204.02
2018-03-30T18:56:06.860Z,99205.12
2018-03-30T18:58:34.586Z,99205.79
2018-03-30T19:01:02.351Z,99207.09
2018-03-30T19:03:30.113Z,99201.23
2018-03-30T19:05:57.865Z,99201.33
2018-03-30T19:08:25.595Z,99195.69
2018-03-30T19:10:53.561Z,99188.91
2018-03-30T19:13:21.301Z,99201.33
2018-03-30T19:15:49.047Z,99202.11
2018-03-30T19:18:16.877Z,99205.28
2018-03-30T19:20:44.639Z,99221.16
2018-03-30T19:23:12.383Z,99216.52
2018-03-30T19:25:40.152Z,99232.45
2018-03-30T19:28:07.886Z,99227.42
2018-03-30T19:30:35.774Z,99228.37
2018-03-30T19:33:03.551Z,99227.09
2018-03-30T19:35:31.330Z,99230.41
2018-03-30T19:37:59.051Z,99226.75
2018-03-30T19:40:26.781Z,99224.78
2018-03-30T19:42:54.538Z,99220.00
2018-03-30T19:45:22.292Z,99225.92
2018-03-30T19:47:50.718Z,99224.11
2018-03-30T19:50:18.437Z,99225.33
2018-03-30T19:52:46.177Z,99218.30
2018-03-30T19:55:13.920Z,99208.48
2018-03-30T19:57:41.676Z,99208.17
2018-03-30T20:00:09.402Z,99216.91
2018-03-30T20:02:37.145Z,99218.53
2018-03-30T20:05:07.833Z,99224.16
2018-03-30T20:07:35.591Z,99219.62
2018-03-30T20:10:06.893Z,99226.02
2018-03-30T20:12:35.033Z,99222.11
2018-03-30T20:15:06.010Z,99222.52
2018-03-30T20:17:33.968Z,99229.64
2018-03-30T20:22:34.818Z,99243.58
2018-03-30T20:25:06.526Z,99241.19
2018-03-30T20:27:34.260Z,99252.14
2018-03-30T20:30:05.465Z,99238.72
2018-03-30T20:32:33.252Z,99230.79
2018-03-30T20:35:00.990Z,99236.84
2018-03-30T20:37:31.572Z,99233.52
2018-03-30T20:39:59.308Z,99229.71
2018-03-30T20:42:27.027Z,99232.48
2018-03-30T20:44:54.781Z,99233.27
2018-03-30T20:47:22.523Z,99235.33
2018-03-30T20:49:50.260Z,99240.10
2018-03-30T20:52:18.197Z,99242.25
2018-03-30T20:54:45.935Z,99247.39
2018-03-30T20:57:13.915Z,99246.17
2018-03-30T20:59:41.706Z,99253.16
2018-03-30T21:02:09.491Z,99256.59
2018-03-30T21:04:37.436Z,99247.21
2018-03-30T21:07:05.172Z,99250.27
2018-03-30T21:09:32.933Z,99244.35
2018-03-30T21:12:00.681Z,99235.33
2018-03-30T21:14:29.074Z,99250.73
2018-03-30T21:16:56.823Z,99249.66
2018-03-30T21:19:24.556Z,99244.12
2018-03-30T21:21:52.496Z,99243.25
2018-03-30T21:24:20.262Z,99250.00
2018-03-30T21:26:48.333Z,99256.53
2018-03-30T21:29:16.131Z,99254.64
2018-03-30T21:31:43.888Z,99249.36
2018-03-30T21:34:11.672Z,99256.09
2018-03-30T21:36:39.360Z,99256.33
2018-03-30T21:39:07.112Z,99251.83
2018-03-30T21:41:34.868Z,99259.11
2018-03-30T21:44:02.596Z,99261.98
2018-03-30T21:46:30.345Z,99253.14
2018-03-30T21:48:58.588Z,99248.32
2018-03-30T21:51:26.306Z,99256.16
2018-03-30T21:53:54.042Z,99247.09
2018-03-30T21:56:21.814Z,99258.66
2018-03-30T21:58:49.557Z,99258.84
2018-03-30T22:01:17.305Z,99263.11
2018-03-30T22:03:45.045Z,99273.25
2018-03-30T22:06:12.897Z,99279.23
2018-03-30T22:08:40.649Z,99280.44
2018-03-30T22:11:08.582Z,99281.52
2018-03-30T22:13:36.317Z,99277.25
2018-03-30T22:16:04.053Z,99274.89
2018-03-30T22:18:31.793Z,99275.51
2018-03-30T22:20:59.530Z,99271.39
2018-03-30T22:23:27.292Z,99261.37
2018-03-30T22:25:55.015Z,99257.19
2018-03-30T22:28:22.778Z,99248.67
2018-03-30T22:30:50.511Z,99246.03
2018-03-30T22:33:18.383Z,99253.68
2018-03-30T22:35:46.110Z,99257.19
2018-03-30T22:38:13.841Z,99258.59
2018-03-30T22:40:41.563Z,99264.03
2018-03-30T22:43:09.315Z,99264.69
2018-03-30T22:45:37.177Z,99270.95
2018-03-30T22:48:04.913Z,99270.09
2018-03-30T22:50:33.137Z,99272.56
2018-03-30T22:53:00.869Z,99268.19
2018-03-30T22:55:28.633Z,99269.80
2018-03-30T22:57:56.393Z,99267.88
2018-03-30T23:00:24.384Z,99264.76
2018-03-30T23:02:52.322Z,99261.89
2018-03-30T23:05:20.048Z,99263.07
2018-03-30T23:07:47.772Z,99262.45
2018-03-30T23:10:15.529Z,99262.56
2018-03-30T23:12:43.364Z,99261.05
2018-03-30T23:15:11.286Z,99260.91
2018-03-30T23:17:39.037Z,99255.78
2018-03-30T23:20:06.865Z,99255.48
2018-03-30T23:22:34.602Z,99253.64
2018-03-30T23:25:06.077Z,99253.19
2018-03-30T23:27:33.865Z,99251.05
2018-03-30T23:30:04.972Z,99246.02
2018-03-30T23:32:32.751Z,99251.34
2018-03-30T23:35:00.486Z,99248.28
2018-03-30T23:37:31.489Z,99245.14
2018-03-30T23:39:59.244Z,99254.73
2018-03-30T23:42:27.021Z,99257.38
2018-03-30T23:44:54.749Z,99258.94
2018-03-30T23:47:22.501Z,99263.45
2018-03-30T23:49:50.236Z,99263.96
2018-03-30T23:52:18.131Z,99259.85
2018-03-30T23:54:45.846Z,99264.56
2018-03-30T23:57:13.683Z,99264.23
2018-03-30T23:59:41.499Z,99261.66
